Hernani, Spain
Current Conditions -  °F | °C
As of 5:00 PM on Thursday 30 Oct 2014 (Local Time) from LESO Reporting Station
Clear Clear  
Wind Chill: 24°   Ceiling: Unl
Heat Index: 24°   Visibility: 6mi
Dew Point: 15°   Wind: 5mph
Humidity: 57%   Direction: 330°NNW
Pressure: 30.09"   Gusts: NA
Location:  43.27°N, 1.98°W
Report Text: LESO 301600Z 33004KT 290V010 CAVOK 24/15 Q1019
Loading
Personal Weather Stations






























Interactive Weather Map
Tropical Storm Tracking
New forecast layout! Learn more

10-Day Weather Forecast

Advertisements
Track Severe Weather on mobile